sensor_id;sensor_type;location;lat;lon;timestamp;P1;durP1;ratioP1;P2;durP2;ratioP2
12846;SDS011;6492;48.128;8.320;2022-08-21T00:07:50;4.37;;;2.83;;
12846;SDS011;6492;48.128;8.320;2022-08-21T00:26:26;5.70;;;2.67;;
12846;SDS011;6492;48.128;8.320;2022-08-21T01:52:57;6.10;;;3.90;;
12846;SDS011;6492;48.128;8.320;2022-08-21T02:01:24;4.70;;;3.90;;
12846;SDS011;6492;48.128;8.320;2022-08-21T02:05:40;5.13;;;4.03;;
12846;SDS011;6492;48.128;8.320;2022-08-21T02:14:07;6.53;;;3.73;;
12846;SDS011;6492;48.128;8.320;2022-08-21T02:27:23;7.07;;;3.57;;
12846;SDS011;6492;48.128;8.320;2022-08-21T02:45:31;4.83;;;3.93;;
12846;SDS011;6492;48.128;8.320;2022-08-21T02:49:48;4.83;;;3.70;;
12846;SDS011;6492;48.128;8.320;2022-08-21T02:54:04;4.77;;;3.80;;
12846;SDS011;6492;48.128;8.320;2022-08-21T05:43:19;8.37;;;6.43;;
12846;SDS011;6492;48.128;8.320;2022-08-21T05:47:56;8.33;;;5.37;;
12846;SDS011;6492;48.128;8.320;2022-08-21T05:51:58;9.57;;;5.57;;
12846;SDS011;6492;48.128;8.320;2022-08-21T06:47:43;10.00;;;4.10;;
12846;SDS011;6492;48.128;8.320;2022-08-21T06:52:18;6.97;;;4.00;;
12846;SDS011;6492;48.128;8.320;2022-08-21T06:57:13;7.13;;;4.33;;
12846;SDS011;6492;48.128;8.320;2022-08-21T07:01:28;6.63;;;3.90;;
12846;SDS011;6492;48.128;8.320;2022-08-21T07:05:40;7.00;;;3.83;;
12846;SDS011;6492;48.128;8.320;2022-08-21T07:10:02;8.10;;;4.40;;
12846;SDS011;6492;48.128;8.320;2022-08-21T07:14:33;4.23;;;3.60;;
12846;SDS011;6492;48.128;8.320;2022-08-21T07:18:41;5.97;;;4.03;;
12846;SDS011;6492;48.128;8.320;2022-08-21T07:22:50;8.03;;;4.63;;
12846;SDS011;6492;48.128;8.320;2022-08-21T07:37:30;4.67;;;3.60;;
12846;SDS011;6492;48.128;8.320;2022-08-21T07:41:40;5.87;;;3.17;;
12846;SDS011;6492;48.128;8.320;2022-08-21T07:45:42;5.53;;;3.50;;
12846;SDS011;6492;48.128;8.320;2022-08-21T07:49:46;4.97;;;3.00;;
12846;SDS011;6492;48.128;8.320;2022-08-21T08:12:15;5.43;;;2.70;;
12846;SDS011;6492;48.128;8.320;2022-08-21T08:16:18;5.40;;;3.45;;
12846;SDS011;6492;48.128;8.320;2022-08-21T08:20:23;4.20;;;2.45;;
12846;SDS011;6492;48.128;8.320;2022-08-21T08:24:26;3.53;;;2.63;;
12846;SDS011;6492;48.128;8.320;2022-08-21T08:28:29;3.67;;;2.47;;
12846;SDS011;6492;48.128;8.320;2022-08-21T08:36:53;3.47;;;2.60;;
12846;SDS011;6492;48.128;8.320;2022-08-21T08:41:00;3.65;;;2.20;;
12846;SDS011;6492;48.128;8.320;2022-08-21T08:53:32;5.57;;;3.28;;
12846;SDS011;6492;48.128;8.320;2022-08-21T08:57:54;3.08;;;2.60;;
12846;SDS011;6492;48.128;8.320;2022-08-21T09:01:59;4.78;;;2.97;;
12846;SDS011;6492;48.128;8.320;2022-08-21T09:06:02;5.70;;;2.90;;
12846;SDS011;6492;48.128;8.320;2022-08-21T09:10:12;3.50;;;2.83;;
12846;SDS011;6492;48.128;8.320;2022-08-21T09:14:21;3.22;;;2.35;;
12846;SDS011;6492;48.128;8.320;2022-08-21T09:18:34;2.92;;;2.60;;
12846;SDS011;6492;48.128;8.320;2022-08-21T09:22:49;4.22;;;2.65;;
12846;SDS011;6492;48.128;8.320;2022-08-21T09:27:02;3.75;;;2.83;;
12846;SDS011;6492;48.128;8.320;2022-08-21T09:31:08;3.83;;;2.35;;
12846;SDS011;6492;48.128;8.320;2022-08-21T09:35:19;4.43;;;2.67;;
12846;SDS011;6492;48.128;8.320;2022-08-21T09:39:23;3.42;;;2.55;;
12846;SDS011;6492;48.128;8.320;2022-08-21T09:43:26;2.67;;;2.42;;
12846;SDS011;6492;48.128;8.320;2022-08-21T09:47:30;5.35;;;3.00;;
12846;SDS011;6492;48.128;8.320;2022-08-21T09:51:34;4.80;;;2.80;;
12846;SDS011;6492;48.128;8.320;2022-08-21T09:55:38;3.53;;;3.22;;
12846;SDS011;6492;48.128;8.320;2022-08-21T10:00:10;2.80;;;2.35;;
12846;SDS011;6492;48.128;8.320;2022-08-21T10:04:21;4.70;;;2.45;;
12846;SDS011;6492;48.128;8.320;2022-08-21T10:08:28;6.15;;;2.28;;
12846;SDS011;6492;48.128;8.320;2022-08-21T10:12:31;3.63;;;2.38;;
12846;SDS011;6492;48.128;8.320;2022-08-21T10:16:42;3.33;;;2.00;;
12846;SDS011;6492;48.128;8.320;2022-08-21T10:21:00;3.17;;;2.50;;
12846;SDS011;6492;48.128;8.320;2022-08-21T10:25:12;2.90;;;2.45;;
12846;SDS011;6492;48.128;8.320;2022-08-21T10:29:23;3.80;;;2.60;;
12846;SDS011;6492;48.128;8.320;2022-08-21T10:33:38;3.28;;;2.50;;
12846;SDS011;6492;48.128;8.320;2022-08-21T10:37:55;3.08;;;2.63;;
12846;SDS011;6492;48.128;8.320;2022-08-21T10:42:15;3.40;;;2.40;;
12846;SDS011;6492;48.128;8.320;2022-08-21T10:46:29;2.60;;;2.30;;
12846;SDS011;6492;48.128;8.320;2022-08-21T10:50:39;4.18;;;2.55;;
12846;SDS011;6492;48.128;8.320;2022-08-21T10:54:57;3.05;;;2.10;;
12846;SDS011;6492;48.128;8.320;2022-08-21T10:59:11;4.05;;;2.30;;
12846;SDS011;6492;48.128;8.320;2022-08-21T11:03:28;3.83;;;2.15;;
12846;SDS011;6492;48.128;8.320;2022-08-21T11:07:43;3.63;;;2.47;;
12846;SDS011;6492;48.128;8.320;2022-08-21T11:11:50;2.92;;;2.25;;
12846;SDS011;6492;48.128;8.320;2022-08-21T11:16:00;3.03;;;2.30;;
12846;SDS011;6492;48.128;8.320;2022-08-21T11:24:46;3.00;;;2.50;;
12846;SDS011;6492;48.128;8.320;2022-08-21T11:28:52;2.45;;;2.25;;
12846;SDS011;6492;48.128;8.320;2022-08-21T11:33:22;3.15;;;2.35;;
12846;SDS011;6492;48.128;8.320;2022-08-21T11:37:40;4.72;;;2.40;;
12846;SDS011;6492;48.128;8.320;2022-08-21T11:41:52;3.28;;;2.47;;
12846;SDS011;6492;48.128;8.320;2022-08-21T11:46:06;2.30;;;2.10;;
12846;SDS011;6492;48.128;8.320;2022-08-21T11:50:16;3.45;;;2.50;;
12846;SDS011;6492;48.128;8.320;2022-08-21T11:54:22;2.40;;;2.20;;
12846;SDS011;6492;48.128;8.320;2022-08-21T11:58:30;6.15;;;2.40;;
12846;SDS011;6492;48.128;8.320;2022-08-21T12:02:38;3.45;;;2.55;;
12846;SDS011;6492;48.128;8.320;2022-08-21T12:06:45;3.00;;;2.30;;
12846;SDS011;6492;48.128;8.320;2022-08-21T12:10:58;2.90;;;2.40;;
12846;SDS011;6492;48.128;8.320;2022-08-21T12:15:06;3.28;;;2.60;;
12846;SDS011;6492;48.128;8.320;2022-08-21T12:19:29;3.03;;;2.30;;
12846;SDS011;6492;48.128;8.320;2022-08-21T12:23:42;3.58;;;2.63;;
12846;SDS011;6492;48.128;8.320;2022-08-21T12:27:47;2.42;;;2.22;;
12846;SDS011;6492;48.128;8.320;2022-08-21T12:31:56;3.25;;;2.10;;
12846;SDS011;6492;48.128;8.320;2022-08-21T12:36:04;2.17;;;1.98;;
12846;SDS011;6492;48.128;8.320;2022-08-21T12:40:14;2.80;;;2.28;;
12846;SDS011;6492;48.128;8.320;2022-08-21T12:44:22;2.60;;;2.20;;
12846;SDS011;6492;48.128;8.320;2022-08-21T12:48:29;2.63;;;2.20;;
12846;SDS011;6492;48.128;8.320;2022-08-21T12:52:35;2.40;;;2.20;;
12846;SDS011;6492;48.128;8.320;2022-08-21T12:56:43;2.90;;;2.35;;
12846;SDS011;6492;48.128;8.320;2022-08-21T13:01:00;3.10;;;2.33;;
12846;SDS011;6492;48.128;8.320;2022-08-21T13:09:31;2.90;;;2.40;;
12846;SDS011;6492;48.128;8.320;2022-08-21T13:13:35;2.95;;;2.40;;
12846;SDS011;6492;48.128;8.320;2022-08-21T13:17:38;3.95;;;2.30;;
12846;SDS011;6492;48.128;8.320;2022-08-21T13:21:44;2.50;;;2.30;;
12846;SDS011;6492;48.128;8.320;2022-08-21T13:25:46;5.50;;;2.50;;
12846;SDS011;6492;48.128;8.320;2022-08-21T13:29:59;3.55;;;2.38;;
12846;SDS011;6492;48.128;8.320;2022-08-21T13:34:03;2.45;;;1.88;;
12846;SDS011;6492;48.128;8.320;2022-08-21T13:38:07;2.83;;;2.15;;
12846;SDS011;6492;48.128;8.320;2022-08-21T13:42:10;2.20;;;2.10;;
12846;SDS011;6492;48.128;8.320;2022-08-21T13:46:14;2.75;;;2.25;;
12846;SDS011;6492;48.128;8.320;2022-08-21T13:50:19;2.78;;;2.10;;
12846;SDS011;6492;48.128;8.320;2022-08-21T13:54:23;3.78;;;2.50;;
12846;SDS011;6492;48.128;8.320;2022-08-21T13:58:28;2.95;;;2.30;;
12846;SDS011;6492;48.128;8.320;2022-08-21T14:02:37;2.70;;;2.00;;
12846;SDS011;6492;48.128;8.320;2022-08-21T14:06:42;3.72;;;2.08;;
12846;SDS011;6492;48.128;8.320;2022-08-21T14:10:45;3.25;;;2.00;;
12846;SDS011;6492;48.128;8.320;2022-08-21T14:14:50;2.17;;;2.00;;
12846;SDS011;6492;48.128;8.320;2022-08-21T14:19:09;2.15;;;1.95;;
12846;SDS011;6492;48.128;8.320;2022-08-21T14:23:23;2.50;;;2.00;;
12846;SDS011;6492;48.128;8.320;2022-08-21T14:27:26;4.03;;;2.30;;
12846;SDS011;6492;48.128;8.320;2022-08-21T14:31:30;2.30;;;2.13;;
12846;SDS011;6492;48.128;8.320;2022-08-21T14:35:35;2.50;;;2.10;;
12846;SDS011;6492;48.128;8.320;2022-08-21T14:39:38;2.30;;;2.10;;
12846;SDS011;6492;48.128;8.320;2022-08-21T14:43:39;2.30;;;2.10;;
12846;SDS011;6492;48.128;8.320;2022-08-21T14:47:41;2.88;;;2.10;;
12846;SDS011;6492;48.128;8.320;2022-08-21T14:51:45;2.70;;;2.20;;
12846;SDS011;6492;48.128;8.320;2022-08-21T14:55:46;2.53;;;2.08;;
12846;SDS011;6492;48.128;8.320;2022-08-21T15:00:08;2.08;;;1.83;;
12846;SDS011;6492;48.128;8.320;2022-08-21T15:04:11;2.20;;;2.00;;
12846;SDS011;6492;48.128;8.320;2022-08-21T15:08:14;4.75;;;2.28;;
12846;SDS011;6492;48.128;8.320;2022-08-21T15:12:16;2.10;;;2.00;;
12846;SDS011;6492;48.128;8.320;2022-08-21T15:16:18;2.22;;;1.80;;
12846;SDS011;6492;48.128;8.320;2022-08-21T15:20:20;2.13;;;1.90;;
12846;SDS011;6492;48.128;8.320;2022-08-21T15:24:23;2.53;;;1.80;;
12846;SDS011;6492;48.128;8.320;2022-08-21T15:28:26;2.40;;;2.00;;
12846;SDS011;6492;48.128;8.320;2022-08-21T15:32:28;2.20;;;2.00;;
12846;SDS011;6492;48.128;8.320;2022-08-21T15:36:30;2.00;;;1.80;;
12846;SDS011;6492;48.128;8.320;2022-08-21T15:40:35;1.92;;;1.80;;
12846;SDS011;6492;48.128;8.320;2022-08-21T15:44:37;2.35;;;2.10;;
12846;SDS011;6492;48.128;8.320;2022-08-21T15:48:43;2.17;;;1.95;;
12846;SDS011;6492;48.128;8.320;2022-08-21T15:52:46;2.97;;;2.15;;
12846;SDS011;6492;48.128;8.320;2022-08-21T15:56:49;2.63;;;2.03;;
12846;SDS011;6492;48.128;8.320;2022-08-21T16:00:52;4.13;;;1.92;;
12846;SDS011;6492;48.128;8.320;2022-08-21T16:04:53;2.38;;;2.17;;
12846;SDS011;6492;48.128;8.320;2022-08-21T16:08:56;2.38;;;2.15;;
12846;SDS011;6492;48.128;8.320;2022-08-21T16:13:01;2.20;;;1.90;;
12846;SDS011;6492;48.128;8.320;2022-08-21T16:17:04;2.95;;;1.95;;
12846;SDS011;6492;48.128;8.320;2022-08-21T16:21:07;4.15;;;3.80;;
12846;SDS011;6492;48.128;8.320;2022-08-21T16:25:09;2.22;;;2.03;;
12846;SDS011;6492;48.128;8.320;2022-08-21T16:29:13;2.17;;;1.95;;
12846;SDS011;6492;48.128;8.320;2022-08-21T16:33:18;2.20;;;2.00;;
12846;SDS011;6492;48.128;8.320;2022-08-21T16:37:22;2.92;;;2.00;;
12846;SDS011;6492;48.128;8.320;2022-08-21T16:41:25;2.60;;;2.25;;
12846;SDS011;6492;48.128;8.320;2022-08-21T16:45:46;2.80;;;2.50;;
12846;SDS011;6492;48.128;8.320;2022-08-21T16:49:48;2.65;;;2.10;;
12846;SDS011;6492;48.128;8.320;2022-08-21T16:53:50;3.15;;;2.38;;
12846;SDS011;6492;48.128;8.320;2022-08-21T16:57:52;2.30;;;2.10;;
12846;SDS011;6492;48.128;8.320;2022-08-21T17:01:56;2.92;;;2.20;;
12846;SDS011;6492;48.128;8.320;2022-08-21T17:05:58;3.05;;;2.50;;
12846;SDS011;6492;48.128;8.320;2022-08-21T17:10:00;2.30;;;2.10;;
12846;SDS011;6492;48.128;8.320;2022-08-21T17:14:02;5.85;;;2.42;;
12846;SDS011;6492;48.128;8.320;2022-08-21T17:18:08;3.10;;;2.55;;
12846;SDS011;6492;48.128;8.320;2022-08-21T17:22:12;4.70;;;2.50;;
12846;SDS011;6492;48.128;8.320;2022-08-21T17:26:14;3.13;;;2.30;;
12846;SDS011;6492;48.128;8.320;2022-08-21T17:30:18;2.30;;;2.10;;
12846;SDS011;6492;48.128;8.320;2022-08-21T17:34:22;3.90;;;2.30;;
12846;SDS011;6492;48.128;8.320;2022-08-21T17:38:25;2.22;;;2.03;;
12846;SDS011;6492;48.128;8.320;2022-08-21T17:42:27;4.70;;;2.15;;
12846;SDS011;6492;48.128;8.320;2022-08-21T17:46:29;2.65;;;2.10;;
12846;SDS011;6492;48.128;8.320;2022-08-21T17:50:32;3.08;;;2.10;;
12846;SDS011;6492;48.128;8.320;2022-08-21T17:54:35;2.47;;;1.90;;
12846;SDS011;6492;48.128;8.320;2022-08-21T20:25:08;1.70;;;1.60;;
12846;SDS011;6492;48.128;8.320;2022-08-21T20:34:58;2.20;;;2.00;;
12846;SDS011;6492;48.128;8.320;2022-08-21T21:32:25;3.03;;;2.60;;
12846;SDS011;6492;48.128;8.320;2022-08-21T21:37:25;3.47;;;2.37;;
12846;SDS011;6492;48.128;8.320;2022-08-21T21:42:02;5.90;;;2.77;;
